sensor_id;sensor_type;location;lat;lon;timestamp;temperature;humidity
2687;DHT22;1353;51.386;7.028;2024-01-11T00:27:23;-6.60;1.00
2687;DHT22;1353;51.386;7.028;2024-01-11T00:31:16;-6.70;1.00
2687;DHT22;1353;51.386;7.028;2024-01-11T00:34:39;-6.60;1.00
2687;DHT22;1353;51.386;7.028;2024-01-11T00:38:10;-6.70;1.00
2687;DHT22;1353;51.386;7.028;2024-01-11T00:41:25;-6.60;1.00
2687;DHT22;1353;51.386;7.028;2024-01-11T00:44:30;-7.00;1.00
2687;DHT22;1353;51.386;7.028;2024-01-11T00:47:21;-7.40;1.00
2687;DHT22;1353;51.386;7.028;2024-01-11T00:50:14;-7.00;1.00
2687;DHT22;1353;51.386;7.028;2024-01-11T00:53:16;-7.00;1.00
2687;DHT22;1353;51.386;7.028;2024-01-11T00:56:22;-7.10;1.00
2687;DHT22;1353;51.386;7.028;2024-01-11T00:59:41;-6.90;1.00
2687;DHT22;1353;51.386;7.028;2024-01-11T01:07:07;-7.00;1.00
2687;DHT22;1353;51.386;7.028;2024-01-11T01:10:12;-7.00;1.00
2687;DHT22;1353;51.386;7.028;2024-01-11T01:23:28;-7.80;1.00
2687;DHT22;1353;51.386;7.028;2024-01-11T01:26:56;-7.40;1.00
2687;DHT22;1353;51.386;7.028;2024-01-11T01:30:26;-7.10;1.00
2687;DHT22;1353;51.386;7.028;2024-01-11T01:34:11;-6.90;1.00
2687;DHT22;1353;51.386;7.028;2024-01-11T01:37:44;-7.40;1.00
2687;DHT22;1353;51.386;7.028;2024-01-11T01:48:05;-7.00;1.00
2687;DHT22;1353;51.386;7.028;2024-01-11T01:51:40;-6.90;1.00
2687;DHT22;1353;51.386;7.028;2024-01-11T01:58:57;-6.90;1.00
2687;DHT22;1353;51.386;7.028;2024-01-11T02:16:47;-7.40;1.00
2687;DHT22;1353;51.386;7.028;2024-01-11T02:19:57;-7.20;1.00
2687;DHT22;1353;51.386;7.028;2024-01-11T02:23:26;-7.30;1.00
2687;DHT22;1353;51.386;7.028;2024-01-11T02:30:16;-7.30;10.40
2687;DHT22;1353;51.386;7.028;2024-01-11T02:33:27;-7.50;1.00
2687;DHT22;1353;51.386;7.028;2024-01-11T02:36:45;-7.90;1.00
2687;DHT22;1353;51.386;7.028;2024-01-11T02:40:03;-7.70;14.90
2687;DHT22;1353;51.386;7.028;2024-01-11T02:43:23;-7.30;22.10
2687;DHT22;1353;51.386;7.028;2024-01-11T02:47:19;-7.70;1.00
2687;DHT22;1353;51.386;7.028;2024-01-11T02:49:57;-7.60;20.60
2687;DHT22;1353;51.386;7.028;2024-01-11T02:53:08;-7.20;27.20
2687;DHT22;1353;51.386;7.028;2024-01-11T02:56:38;-7.40;10.60
2687;DHT22;1353;51.386;7.028;2024-01-11T03:00:28;-8.00;1.00
2687;DHT22;1353;51.386;7.028;2024-01-11T03:03:49;-7.90;19.30
2687;DHT22;1353;51.386;7.028;2024-01-11T03:06:58;-7.60;19.30
2687;DHT22;1353;51.386;7.028;2024-01-11T03:14:15;-7.60;16.60
2687;DHT22;1353;51.386;7.028;2024-01-11T03:18:01;-7.30;15.20
2687;DHT22;1353;51.386;7.028;2024-01-11T03:40:19;-7.60;28.40
2687;DHT22;1353;51.386;7.028;2024-01-11T04:35:25;-7.70;46.60
2687;DHT22;1353;51.386;7.028;2024-01-11T04:38:51;-7.80;48.50
2687;DHT22;1353;51.386;7.028;2024-01-11T04:41:58;-7.60;41.80
2687;DHT22;1353;51.386;7.028;2024-01-11T04:45:05;-7.60;23.80
2687;DHT22;1353;51.386;7.028;2024-01-11T05:16:23;-7.60;25.70
2687;DHT22;1353;51.386;7.028;2024-01-11T05:18:52;-7.50;25.30
2687;DHT22;1353;51.386;7.028;2024-01-11T12:40:42;-1.10;1.00
2687;DHT22;1353;51.386;7.028;2024-01-11T12:43:11;-1.10;1.00
2687;DHT22;1353;51.386;7.028;2024-01-11T12:45:39;-1.10;1.00
2687;DHT22;1353;51.386;7.028;2024-01-11T12:48:10;-1.10;1.00
2687;DHT22;1353;51.386;7.028;2024-01-11T12:50:40;-0.80;1.00
2687;DHT22;1353;51.386;7.028;2024-01-11T12:53:12;-0.80;1.00
2687;DHT22;1353;51.386;7.028;2024-01-11T12:55:46;-0.70;1.00
2687;DHT22;1353;51.386;7.028;2024-01-11T12:58:21;-0.80;1.00
